sensor_id;sensor_type;location;lat;lon;timestamp;temperature;humidity
12977;DHT22;6553;48.412;9.514;2022-08-19T00:01:53;24.10;68.70
12977;DHT22;6553;48.412;9.514;2022-08-19T00:04:24;24.10;68.50
12977;DHT22;6553;48.412;9.514;2022-08-19T00:06:53;24.10;68.60
12977;DHT22;6553;48.412;9.514;2022-08-19T00:09:21;24.10;68.60
12977;DHT22;6553;48.412;9.514;2022-08-19T00:11:48;24.10;68.60
12977;DHT22;6553;48.412;9.514;2022-08-19T00:14:16;24.10;68.60
12977;DHT22;6553;48.412;9.514;2022-08-19T00:16:45;24.10;68.60
12977;DHT22;6553;48.412;9.514;2022-08-19T00:19:12;24.10;68.60
12977;DHT22;6553;48.412;9.514;2022-08-19T00:21:39;24.10;68.60
12977;DHT22;6553;48.412;9.514;2022-08-19T00:24:10;24.10;68.60
12977;DHT22;6553;48.412;9.514;2022-08-19T00:26:37;24.10;68.60
12977;DHT22;6553;48.412;9.514;2022-08-19T00:29:05;24.10;68.60
12977;DHT22;6553;48.412;9.514;2022-08-19T00:31:32;24.10;68.60
12977;DHT22;6553;48.412;9.514;2022-08-19T00:33:59;24.10;68.50
12977;DHT22;6553;48.412;9.514;2022-08-19T00:36:25;24.10;68.40
12977;DHT22;6553;48.412;9.514;2022-08-19T00:38:51;24.10;68.50
12977;DHT22;6553;48.412;9.514;2022-08-19T00:41:20;24.10;68.50
12977;DHT22;6553;48.412;9.514;2022-08-19T00:46:30;24.10;68.60
12977;DHT22;6553;48.412;9.514;2022-08-19T00:48:58;24.10;68.60
12977;DHT22;6553;48.412;9.514;2022-08-19T00:51:30;24.10;68.60
12977;DHT22;6553;48.412;9.514;2022-08-19T00:53:58;24.10;68.50
12977;DHT22;6553;48.412;9.514;2022-08-19T00:56:26;24.10;68.60
12977;DHT22;6553;48.412;9.514;2022-08-19T00:58:55;24.10;68.40
12977;DHT22;6553;48.412;9.514;2022-08-19T01:01:23;24.10;68.60
12977;DHT22;6553;48.412;9.514;2022-08-19T01:03:49;24.10;68.50
12977;DHT22;6553;48.412;9.514;2022-08-19T01:06:16;24.10;68.60
12977;DHT22;6553;48.412;9.514;2022-08-19T01:08:42;24.10;68.50
12977;DHT22;6553;48.412;9.514;2022-08-19T01:11:08;24.10;68.50
12977;DHT22;6553;48.412;9.514;2022-08-19T01:13:36;24.10;68.60
12977;DHT22;6553;48.412;9.514;2022-08-19T01:16:05;24.10;68.50
12977;DHT22;6553;48.412;9.514;2022-08-19T01:18:38;24.00;68.40
12977;DHT22;6553;48.412;9.514;2022-08-19T01:21:12;24.10;68.60
12977;DHT22;6553;48.412;9.514;2022-08-19T01:23:47;24.00;68.30
12977;DHT22;6553;48.412;9.514;2022-08-19T01:26:21;24.00;68.50
12977;DHT22;6553;48.412;9.514;2022-08-19T01:28:51;24.00;68.40
12977;DHT22;6553;48.412;9.514;2022-08-19T01:31:23;24.00;68.30
12977;DHT22;6553;48.412;9.514;2022-08-19T01:33:53;24.10;68.50
12977;DHT22;6553;48.412;9.514;2022-08-19T01:36:30;24.10;68.70
12977;DHT22;6553;48.412;9.514;2022-08-19T01:38:59;24.00;68.40
12977;DHT22;6553;48.412;9.514;2022-08-19T01:41:27;24.10;68.60
12977;DHT22;6553;48.412;9.514;2022-08-19T01:43:53;24.00;68.50
12977;DHT22;6553;48.412;9.514;2022-08-19T01:46:19;24.10;68.60
12977;DHT22;6553;48.412;9.514;2022-08-19T01:48:46;24.10;68.60
12977;DHT22;6553;48.412;9.514;2022-08-19T01:51:13;24.10;68.50
12977;DHT22;6553;48.412;9.514;2022-08-19T01:53:39;24.00;68.50
12977;DHT22;6553;48.412;9.514;2022-08-19T01:56:06;24.00;68.40
12977;DHT22;6553;48.412;9.514;2022-08-19T01:58:41;24.00;68.40
12977;DHT22;6553;48.412;9.514;2022-08-19T02:01:17;24.00;68.40
12977;DHT22;6553;48.412;9.514;2022-08-19T02:03:43;24.10;68.60
12977;DHT22;6553;48.412;9.514;2022-08-19T02:06:09;24.00;68.30
12977;DHT22;6553;48.412;9.514;2022-08-19T02:08:37;24.00;68.40
12977;DHT22;6553;48.412;9.514;2022-08-19T02:11:04;24.00;68.30
12977;DHT22;6553;48.412;9.514;2022-08-19T02:13:32;24.00;68.40
12977;DHT22;6553;48.412;9.514;2022-08-19T02:15:59;24.00;68.50
12977;DHT22;6553;48.412;9.514;2022-08-19T02:18:25;24.00;68.40
12977;DHT22;6553;48.412;9.514;2022-08-19T02:20:52;24.00;68.40
12977;DHT22;6553;48.412;9.514;2022-08-19T02:23:18;24.00;68.50
12977;DHT22;6553;48.412;9.514;2022-08-19T02:25:46;24.00;68.50
12977;DHT22;6553;48.412;9.514;2022-08-19T02:28:13;24.00;68.50
12977;DHT22;6553;48.412;9.514;2022-08-19T02:30:41;24.00;68.50
12977;DHT22;6553;48.412;9.514;2022-08-19T02:33:07;24.00;68.50
12977;DHT22;6553;48.412;9.514;2022-08-19T02:35:33;24.00;68.40
12977;DHT22;6553;48.412;9.514;2022-08-19T02:37:59;24.00;68.50
12977;DHT22;6553;48.412;9.514;2022-08-19T02:40:55;24.00;68.50
12977;DHT22;6553;48.412;9.514;2022-08-19T02:43:26;24.00;68.50
12977;DHT22;6553;48.412;9.514;2022-08-19T02:45:54;24.00;68.50
12977;DHT22;6553;48.412;9.514;2022-08-19T02:48:22;24.00;68.40
12977;DHT22;6553;48.412;9.514;2022-08-19T02:50:51;24.00;68.40
12977;DHT22;6553;48.412;9.514;2022-08-19T02:53:25;24.00;68.40
12977;DHT22;6553;48.412;9.514;2022-08-19T02:55:52;24.00;68.40
12977;DHT22;6553;48.412;9.514;2022-08-19T02:58:19;24.00;68.50
12977;DHT22;6553;48.412;9.514;2022-08-19T03:00:55;24.00;68.50
12977;DHT22;6553;48.412;9.514;2022-08-19T03:03:21;24.00;68.50
12977;DHT22;6553;48.412;9.514;2022-08-19T03:05:47;24.00;68.40
12977;DHT22;6553;48.412;9.514;2022-08-19T03:08:13;24.00;68.40
12977;DHT22;6553;48.412;9.514;2022-08-19T03:10:41;23.90;68.30
12977;DHT22;6553;48.412;9.514;2022-08-19T03:13:11;24.00;68.50
12977;DHT22;6553;48.412;9.514;2022-08-19T03:15:42;24.00;68.50
12977;DHT22;6553;48.412;9.514;2022-08-19T03:18:10;24.00;68.50
12977;DHT22;6553;48.412;9.514;2022-08-19T03:20:42;24.00;68.50
12977;DHT22;6553;48.412;9.514;2022-08-19T03:23:13;24.00;68.50
12977;DHT22;6553;48.412;9.514;2022-08-19T03:25:41;24.00;68.50
12977;DHT22;6553;48.412;9.514;2022-08-19T03:28:10;24.00;68.50
12977;DHT22;6553;48.412;9.514;2022-08-19T03:30:38;24.00;68.60
12977;DHT22;6553;48.412;9.514;2022-08-19T03:33:06;24.00;68.60
12977;DHT22;6553;48.412;9.514;2022-08-19T03:35:33;24.00;68.50
12977;DHT22;6553;48.412;9.514;2022-08-19T03:38:05;24.00;68.50
12977;DHT22;6553;48.412;9.514;2022-08-19T03:40:36;24.00;68.60
12977;DHT22;6553;48.412;9.514;2022-08-19T03:43:02;24.00;68.50
12977;DHT22;6553;48.412;9.514;2022-08-19T03:45:29;23.90;68.40
12977;DHT22;6553;48.412;9.514;2022-08-19T03:47:55;24.00;68.60
12977;DHT22;6553;48.412;9.514;2022-08-19T03:50:21;23.90;68.50
12977;DHT22;6553;48.412;9.514;2022-08-19T03:52:52;24.00;68.60
12977;DHT22;6553;48.412;9.514;2022-08-19T03:55:19;24.00;68.60
12977;DHT22;6553;48.412;9.514;2022-08-19T03:57:44;23.90;68.40
12977;DHT22;6553;48.412;9.514;2022-08-19T04:00:12;23.90;68.40
12977;DHT22;6553;48.412;9.514;2022-08-19T04:02:38;23.90;68.50
12977;DHT22;6553;48.412;9.514;2022-08-19T04:05:04;23.90;68.40
12977;DHT22;6553;48.412;9.514;2022-08-19T04:07:30;23.90;68.50
12977;DHT22;6553;48.412;9.514;2022-08-19T04:09:56;23.90;68.40
12977;DHT22;6553;48.412;9.514;2022-08-19T04:12:22;23.90;68.50
12977;DHT22;6553;48.412;9.514;2022-08-19T04:14:48;23.90;68.50
12977;DHT22;6553;48.412;9.514;2022-08-19T04:17:13;23.90;68.50
12977;DHT22;6553;48.412;9.514;2022-08-19T04:19:39;23.90;68.50
12977;DHT22;6553;48.412;9.514;2022-08-19T04:22:06;23.90;68.50
12977;DHT22;6553;48.412;9.514;2022-08-19T04:24:33;23.90;68.50
12977;DHT22;6553;48.412;9.514;2022-08-19T04:27:01;23.90;68.60
12977;DHT22;6553;48.412;9.514;2022-08-19T04:29:28;23.90;68.60
12977;DHT22;6553;48.412;9.514;2022-08-19T04:31:55;23.90;68.60
12977;DHT22;6553;48.412;9.514;2022-08-19T04:34:24;23.90;68.50
12977;DHT22;6553;48.412;9.514;2022-08-19T04:36:53;23.90;68.40
12977;DHT22;6553;48.412;9.514;2022-08-19T04:39:23;23.90;68.40
12977;DHT22;6553;48.412;9.514;2022-08-19T04:42:15;23.90;68.50
12977;DHT22;6553;48.412;9.514;2022-08-19T04:45:02;23.90;68.40
12977;DHT22;6553;48.412;9.514;2022-08-19T04:47:29;23.90;68.50
12977;DHT22;6553;48.412;9.514;2022-08-19T04:49:56;23.90;68.50
12977;DHT22;6553;48.412;9.514;2022-08-19T04:52:22;23.90;68.50
12977;DHT22;6553;48.412;9.514;2022-08-19T04:54:48;23.90;68.60
12977;DHT22;6553;48.412;9.514;2022-08-19T04:57:14;23.90;68.50
12977;DHT22;6553;48.412;9.514;2022-08-19T04:59:40;23.90;68.50
12977;DHT22;6553;48.412;9.514;2022-08-19T05:02:08;23.90;68.60
12977;DHT22;6553;48.412;9.514;2022-08-19T05:04:34;23.90;68.60
12977;DHT22;6553;48.412;9.514;2022-08-19T05:07:03;23.90;68.60
12977;DHT22;6553;48.412;9.514;2022-08-19T05:09:30;23.90;68.50
12977;DHT22;6553;48.412;9.514;2022-08-19T05:11:56;23.90;68.50
12977;DHT22;6553;48.412;9.514;2022-08-19T05:14:21;23.90;68.50
12977;DHT22;6553;48.412;9.514;2022-08-19T05:16:48;23.90;68.50
12977;DHT22;6553;48.412;9.514;2022-08-19T05:19:14;23.90;68.60
12977;DHT22;6553;48.412;9.514;2022-08-19T05:21:59;23.90;68.50
12977;DHT22;6553;48.412;9.514;2022-08-19T05:24:44;23.90;68.50
12977;DHT22;6553;48.412;9.514;2022-08-19T05:27:10;23.90;68.60
12977;DHT22;6553;48.412;9.514;2022-08-19T05:29:36;23.90;68.60
12977;DHT22;6553;48.412;9.514;2022-08-19T05:32:04;23.90;68.60
12977;DHT22;6553;48.412;9.514;2022-08-19T05:34:31;23.90;68.70
12977;DHT22;6553;48.412;9.514;2022-08-19T05:36:59;23.90;68.60
12977;DHT22;6553;48.412;9.514;2022-08-19T05:39:29;23.90;68.70
12977;DHT22;6553;48.412;9.514;2022-08-19T05:42:00;23.90;68.70
12977;DHT22;6553;48.412;9.514;2022-08-19T05:44:30;23.90;68.60
12977;DHT22;6553;48.412;9.514;2022-08-19T05:46:58;23.90;68.60
12977;DHT22;6553;48.412;9.514;2022-08-19T05:49:26;23.90;68.60
12977;DHT22;6553;48.412;9.514;2022-08-19T05:51:53;23.80;68.50
12977;DHT22;6553;48.412;9.514;2022-08-19T05:54:21;23.90;68.60
12977;DHT22;6553;48.412;9.514;2022-08-19T05:56:51;23.90;68.50
12977;DHT22;6553;48.412;9.514;2022-08-19T05:59:19;23.90;68.60
12977;DHT22;6553;48.412;9.514;2022-08-19T06:01:48;23.80;68.40
12977;DHT22;6553;48.412;9.514;2022-08-19T06:04:20;23.90;68.60
12977;DHT22;6553;48.412;9.514;2022-08-19T06:06:51;23.90;68.60
12977;DHT22;6553;48.412;9.514;2022-08-19T06:09:19;23.80;68.40
12977;DHT22;6553;48.412;9.514;2022-08-19T06:11:48;23.90;68.50
12977;DHT22;6553;48.412;9.514;2022-08-19T06:14:24;23.90;68.60
12977;DHT22;6553;48.412;9.514;2022-08-19T06:16:51;23.80;68.50
12977;DHT22;6553;48.412;9.514;2022-08-19T06:19:20;23.80;68.60
12977;DHT22;6553;48.412;9.514;2022-08-19T06:21:50;23.90;68.60
12977;DHT22;6553;48.412;9.514;2022-08-19T06:24:20;23.80;68.40
12977;DHT22;6553;48.412;9.514;2022-08-19T06:26:50;23.80;68.40
12977;DHT22;6553;48.412;9.514;2022-08-19T06:29:18;23.90;68.50
12977;DHT22;6553;48.412;9.514;2022-08-19T06:31:51;23.80;68.40
12977;DHT22;6553;48.412;9.514;2022-08-19T06:34:19;23.90;68.50
12977;DHT22;6553;48.412;9.514;2022-08-19T06:36:48;23.80;68.40
12977;DHT22;6553;48.412;9.514;2022-08-19T06:39:27;23.80;68.40
12977;DHT22;6553;48.412;9.514;2022-08-19T06:41:59;23.90;68.50
12977;DHT22;6553;48.412;9.514;2022-08-19T06:44:30;23.80;68.50
12977;DHT22;6553;48.412;9.514;2022-08-19T06:47:02;23.90;68.50
12977;DHT22;6553;48.412;9.514;2022-08-19T06:49:30;23.80;68.50
12977;DHT22;6553;48.412;9.514;2022-08-19T06:51:59;23.80;68.50
12977;DHT22;6553;48.412;9.514;2022-08-19T06:54:26;23.80;68.50
12977;DHT22;6553;48.412;9.514;2022-08-19T06:56:56;23.80;68.40
12977;DHT22;6553;48.412;9.514;2022-08-19T06:59:24;23.90;68.50
12977;DHT22;6553;48.412;9.514;2022-08-19T07:01:55;23.80;68.50
12977;DHT22;6553;48.412;9.514;2022-08-19T07:04:28;23.80;68.40
12977;DHT22;6553;48.412;9.514;2022-08-19T07:06:59;23.80;68.40
12977;DHT22;6553;48.412;9.514;2022-08-19T07:09:27;23.80;68.40
12977;DHT22;6553;48.412;9.514;2022-08-19T07:11:54;23.80;68.40
12977;DHT22;6553;48.412;9.514;2022-08-19T07:14:23;23.80;68.30
12977;DHT22;6553;48.412;9.514;2022-08-19T07:16:53;23.80;68.30
12977;DHT22;6553;48.412;9.514;2022-08-19T07:19:21;23.80;68.40
12977;DHT22;6553;48.412;9.514;2022-08-19T07:21:49;23.80;68.50
12977;DHT22;6553;48.412;9.514;2022-08-19T07:24:19;23.80;68.30
12977;DHT22;6553;48.412;9.514;2022-08-19T07:26:45;23.80;68.40
12977;DHT22;6553;48.412;9.514;2022-08-19T07:29:12;23.90;68.50
12977;DHT22;6553;48.412;9.514;2022-08-19T07:31:37;23.80;68.40
12977;DHT22;6553;48.412;9.514;2022-08-19T07:34:05;23.80;68.40
12977;DHT22;6553;48.412;9.514;2022-08-19T07:36:34;23.80;68.40
12977;DHT22;6553;48.412;9.514;2022-08-19T07:39:05;23.80;68.40
12977;DHT22;6553;48.412;9.514;2022-08-19T07:41:35;23.80;68.40
12977;DHT22;6553;48.412;9.514;2022-08-19T07:44:03;23.80;68.40
12977;DHT22;6553;48.412;9.514;2022-08-19T07:46:33;23.80;68.40
12977;DHT22;6553;48.412;9.514;2022-08-19T07:49:04;23.80;68.40
12977;DHT22;6553;48.412;9.514;2022-08-19T07:51:31;23.80;68.40
12977;DHT22;6553;48.412;9.514;2022-08-19T07:53:57;23.80;68.40
12977;DHT22;6553;48.412;9.514;2022-08-19T07:56:24;23.80;68.40
12977;DHT22;6553;48.412;9.514;2022-08-19T07:58:51;23.80;68.50
12977;DHT22;6553;48.412;9.514;2022-08-19T08:01:20;23.80;68.40
12977;DHT22;6553;48.412;9.514;2022-08-19T08:03:49;23.80;68.30
12977;DHT22;6553;48.412;9.514;2022-08-19T08:06:35;23.80;68.40
12977;DHT22;6553;48.412;9.514;2022-08-19T08:09:23;23.80;68.40
12977;DHT22;6553;48.412;9.514;2022-08-19T08:12:07;23.80;68.50
12977;DHT22;6553;48.412;9.514;2022-08-19T08:14:56;23.80;68.30
12977;DHT22;6553;48.412;9.514;2022-08-19T08:17:28;23.80;68.30
12977;DHT22;6553;48.412;9.514;2022-08-19T08:19:55;23.80;68.30
12977;DHT22;6553;48.412;9.514;2022-08-19T08:22:24;23.80;69.20
12977;DHT22;6553;48.412;9.514;2022-08-19T08:25:11;23.80;68.40
12977;DHT22;6553;48.412;9.514;2022-08-19T08:27:41;23.80;68.40
12977;DHT22;6553;48.412;9.514;2022-08-19T08:30:18;23.80;68.40
12977;DHT22;6553;48.412;9.514;2022-08-19T08:32:47;23.80;68.40
12977;DHT22;6553;48.412;9.514;2022-08-19T08:35:16;23.80;68.40
12977;DHT22;6553;48.412;9.514;2022-08-19T08:37:45;23.80;68.30
12977;DHT22;6553;48.412;9.514;2022-08-19T08:40:37;23.80;68.30
12977;DHT22;6553;48.412;9.514;2022-08-19T08:43:09;23.80;68.30
12977;DHT22;6553;48.412;9.514;2022-08-19T08:45:49;23.90;68.40
12977;DHT22;6553;48.412;9.514;2022-08-19T08:48:56;23.80;68.40
12977;DHT22;6553;48.412;9.514;2022-08-19T08:52:15;23.80;68.50
12977;DHT22;6553;48.412;9.514;2022-08-19T08:54:45;23.80;68.30
12977;DHT22;6553;48.412;9.514;2022-08-19T09:00:03;23.80;68.40
12977;DHT22;6553;48.412;9.514;2022-08-19T09:02:33;23.80;68.50
12977;DHT22;6553;48.412;9.514;2022-08-19T09:04:58;23.80;68.50
12977;DHT22;6553;48.412;9.514;2022-08-19T09:15:48;23.80;68.40
12977;DHT22;6553;48.412;9.514;2022-08-19T09:18:22;23.80;68.50
12977;DHT22;6553;48.412;9.514;2022-08-19T09:20:48;23.80;68.50
12977;DHT22;6553;48.412;9.514;2022-08-19T09:23:14;23.80;68.40
12977;DHT22;6553;48.412;9.514;2022-08-19T09:25:40;23.80;68.50
12977;DHT22;6553;48.412;9.514;2022-08-19T09:28:07;23.80;68.50
12977;DHT22;6553;48.412;9.514;2022-08-19T09:30:39;23.80;68.30
12977;DHT22;6553;48.412;9.514;2022-08-19T09:33:07;23.80;68.40
12977;DHT22;6553;48.412;9.514;2022-08-19T09:35:33;23.80;68.60
12977;DHT22;6553;48.412;9.514;2022-08-19T09:38:00;23.80;68.70
12977;DHT22;6553;48.412;9.514;2022-08-19T09:40:27;23.80;68.60
12977;DHT22;6553;48.412;9.514;2022-08-19T09:42:54;23.80;68.40
12977;DHT22;6553;48.412;9.514;2022-08-19T09:45:21;23.80;68.40
12977;DHT22;6553;48.412;9.514;2022-08-19T09:47:48;23.80;68.50
12977;DHT22;6553;48.412;9.514;2022-08-19T09:50:16;23.80;68.50
12977;DHT22;6553;48.412;9.514;2022-08-19T09:52:44;23.80;68.50
12977;DHT22;6553;48.412;9.514;2022-08-19T09:55:11;23.80;68.50
12977;DHT22;6553;48.412;9.514;2022-08-19T09:57:38;23.80;68.40
12977;DHT22;6553;48.412;9.514;2022-08-19T10:00:06;23.80;68.50
12977;DHT22;6553;48.412;9.514;2022-08-19T10:02:35;23.80;68.40
12977;DHT22;6553;48.412;9.514;2022-08-19T10:05:01;23.80;68.50
12977;DHT22;6553;48.412;9.514;2022-08-19T10:07:46;23.80;68.60
12977;DHT22;6553;48.412;9.514;2022-08-19T10:10:12;23.80;68.70
12977;DHT22;6553;48.412;9.514;2022-08-19T10:12:38;23.80;68.60
12977;DHT22;6553;48.412;9.514;2022-08-19T10:15:05;23.80;68.70
12977;DHT22;6553;48.412;9.514;2022-08-19T10:17:31;23.80;68.70
12977;DHT22;6553;48.412;9.514;2022-08-19T10:20:00;23.80;68.70
12977;DHT22;6553;48.412;9.514;2022-08-19T10:22:29;23.80;68.70
12977;DHT22;6553;48.412;9.514;2022-08-19T10:24:55;23.80;68.50
12977;DHT22;6553;48.412;9.514;2022-08-19T10:27:22;23.80;68.60
12977;DHT22;6553;48.412;9.514;2022-08-19T10:29:48;23.80;68.50
12977;DHT22;6553;48.412;9.514;2022-08-19T10:32:14;23.80;68.40
12977;DHT22;6553;48.412;9.514;2022-08-19T10:34:40;23.80;68.50
12977;DHT22;6553;48.412;9.514;2022-08-19T10:37:06;23.80;68.50
12977;DHT22;6553;48.412;9.514;2022-08-19T10:39:34;23.80;68.50
12977;DHT22;6553;48.412;9.514;2022-08-19T10:42:07;23.80;68.50
12977;DHT22;6553;48.412;9.514;2022-08-19T10:44:36;23.80;68.60
12977;DHT22;6553;48.412;9.514;2022-08-19T10:47:02;23.80;68.60
12977;DHT22;6553;48.412;9.514;2022-08-19T10:49:29;23.80;68.50
12977;DHT22;6553;48.412;9.514;2022-08-19T10:51:56;23.80;68.70
12977;DHT22;6553;48.412;9.514;2022-08-19T10:54:40;23.80;68.60
12977;DHT22;6553;48.412;9.514;2022-08-19T10:57:24;23.80;68.70
12977;DHT22;6553;48.412;9.514;2022-08-19T10:59:55;23.80;68.70
12977;DHT22;6553;48.412;9.514;2022-08-19T11:02:21;23.80;68.60
12977;DHT22;6553;48.412;9.514;2022-08-19T11:04:47;23.80;68.70
12977;DHT22;6553;48.412;9.514;2022-08-19T11:07:15;23.80;68.60
12977;DHT22;6553;48.412;9.514;2022-08-19T11:09:41;23.80;68.60
12977;DHT22;6553;48.412;9.514;2022-08-19T11:12:09;23.80;68.60
12977;DHT22;6553;48.412;9.514;2022-08-19T11:14:35;23.80;68.70
12977;DHT22;6553;48.412;9.514;2022-08-19T11:17:03;23.80;68.70
12977;DHT22;6553;48.412;9.514;2022-08-19T11:19:30;23.80;68.70
12977;DHT22;6553;48.412;9.514;2022-08-19T11:21:57;23.80;68.80
12977;DHT22;6553;48.412;9.514;2022-08-19T11:24:26;23.80;68.60
12977;DHT22;6553;48.412;9.514;2022-08-19T11:26:54;23.80;68.80
12977;DHT22;6553;48.412;9.514;2022-08-19T11:29:25;23.80;68.80
12977;DHT22;6553;48.412;9.514;2022-08-19T11:31:53;23.80;68.80
12977;DHT22;6553;48.412;9.514;2022-08-19T11:34:25;23.80;68.80
12977;DHT22;6553;48.412;9.514;2022-08-19T11:36:53;23.80;69.00
12977;DHT22;6553;48.412;9.514;2022-08-19T11:39:24;23.80;68.90
12977;DHT22;6553;48.412;9.514;2022-08-19T11:41:51;23.80;68.90
12977;DHT22;6553;48.412;9.514;2022-08-19T11:44:17;23.80;68.90
12977;DHT22;6553;48.412;9.514;2022-08-19T11:46:44;23.80;68.90
12977;DHT22;6553;48.412;9.514;2022-08-19T11:49:12;23.80;69.00
12977;DHT22;6553;48.412;9.514;2022-08-19T11:51:44;23.80;69.50
12977;DHT22;6553;48.412;9.514;2022-08-19T11:54:12;23.80;69.00
12977;DHT22;6553;48.412;9.514;2022-08-19T11:56:40;23.80;69.00
12977;DHT22;6553;48.412;9.514;2022-08-19T11:59:06;23.80;68.90
12977;DHT22;6553;48.412;9.514;2022-08-19T12:01:33;23.80;68.90
12977;DHT22;6553;48.412;9.514;2022-08-19T12:04:00;23.80;68.90
12977;DHT22;6553;48.412;9.514;2022-08-19T12:06:28;23.80;69.00
12977;DHT22;6553;48.412;9.514;2022-08-19T12:08:59;23.80;69.00
12977;DHT22;6553;48.412;9.514;2022-08-19T12:11:28;23.80;69.00
12977;DHT22;6553;48.412;9.514;2022-08-19T12:13:54;23.80;69.00
12977;DHT22;6553;48.412;9.514;2022-08-19T12:16:25;23.80;69.00
12977;DHT22;6553;48.412;9.514;2022-08-19T12:18:53;23.80;69.00
12977;DHT22;6553;48.412;9.514;2022-08-19T12:21:23;23.80;69.00
12977;DHT22;6553;48.412;9.514;2022-08-19T12:23:54;23.80;69.10
12977;DHT22;6553;48.412;9.514;2022-08-19T12:26:23;23.80;69.20
12977;DHT22;6553;48.412;9.514;2022-08-19T12:28:49;23.80;69.00
12977;DHT22;6553;48.412;9.514;2022-08-19T12:31:15;23.80;69.00
12977;DHT22;6553;48.412;9.514;2022-08-19T12:33:42;23.80;69.00
12977;DHT22;6553;48.412;9.514;2022-08-19T12:36:10;23.80;69.00
12977;DHT22;6553;48.412;9.514;2022-08-19T12:38:38;23.80;69.00
12977;DHT22;6553;48.412;9.514;2022-08-19T12:41:05;23.80;69.00
12977;DHT22;6553;48.412;9.514;2022-08-19T12:43:33;23.80;69.00
12977;DHT22;6553;48.412;9.514;2022-08-19T12:46:00;23.80;69.30
12977;DHT22;6553;48.412;9.514;2022-08-19T12:48:27;23.80;69.10
12977;DHT22;6553;48.412;9.514;2022-08-19T12:50:53;23.70;69.00
12977;DHT22;6553;48.412;9.514;2022-08-19T12:53:19;23.80;69.00
12977;DHT22;6553;48.412;9.514;2022-08-19T12:55:45;23.80;69.00
12977;DHT22;6553;48.412;9.514;2022-08-19T12:58:11;23.80;69.00
12977;DHT22;6553;48.412;9.514;2022-08-19T13:00:38;23.80;69.10
12977;DHT22;6553;48.412;9.514;2022-08-19T13:03:05;23.80;69.10
12977;DHT22;6553;48.412;9.514;2022-08-19T13:05:32;23.80;69.20
12977;DHT22;6553;48.412;9.514;2022-08-19T13:07:59;23.80;69.30
12977;DHT22;6553;48.412;9.514;2022-08-19T13:10:34;23.80;70.10
12977;DHT22;6553;48.412;9.514;2022-08-19T13:13:02;23.80;69.40
12977;DHT22;6553;48.412;9.514;2022-08-19T13:15:34;23.70;69.20
12977;DHT22;6553;48.412;9.514;2022-08-19T13:18:02;23.70;69.20
12977;DHT22;6553;48.412;9.514;2022-08-19T13:20:28;23.80;69.20
12977;DHT22;6553;48.412;9.514;2022-08-19T13:22:54;23.80;69.10
12977;DHT22;6553;48.412;9.514;2022-08-19T13:25:22;23.80;69.20
12977;DHT22;6553;48.412;9.514;2022-08-19T13:27:49;23.70;69.10
12977;DHT22;6553;48.412;9.514;2022-08-19T13:30:18;23.80;69.20
12977;DHT22;6553;48.412;9.514;2022-08-19T13:33:03;23.80;69.30
12977;DHT22;6553;48.412;9.514;2022-08-19T13:35:37;23.80;69.30
12977;DHT22;6553;48.412;9.514;2022-08-19T13:38:04;23.70;69.10
12977;DHT22;6553;48.412;9.514;2022-08-19T13:40:32;23.80;69.40
12977;DHT22;6553;48.412;9.514;2022-08-19T13:42:59;23.80;69.30
12977;DHT22;6553;48.412;9.514;2022-08-19T13:45:28;23.80;69.40
12977;DHT22;6553;48.412;9.514;2022-08-19T13:47:56;23.80;69.40
12977;DHT22;6553;48.412;9.514;2022-08-19T13:50:25;23.80;69.20
12977;DHT22;6553;48.412;9.514;2022-08-19T13:52:55;23.70;69.30
12977;DHT22;6553;48.412;9.514;2022-08-19T13:55:22;23.80;69.30
12977;DHT22;6553;48.412;9.514;2022-08-19T13:57:52;23.70;69.20
12977;DHT22;6553;48.412;9.514;2022-08-19T14:00:20;23.70;70.10
12977;DHT22;6553;48.412;9.514;2022-08-19T14:02:50;23.80;69.30
12977;DHT22;6553;48.412;9.514;2022-08-19T14:05:18;23.80;69.40
12977;DHT22;6553;48.412;9.514;2022-08-19T14:07:44;23.70;69.40
12977;DHT22;6553;48.412;9.514;2022-08-19T14:10:12;23.80;69.40
12977;DHT22;6553;48.412;9.514;2022-08-19T14:12:39;23.80;69.50
12977;DHT22;6553;48.412;9.514;2022-08-19T14:15:07;23.80;69.40
12977;DHT22;6553;48.412;9.514;2022-08-19T14:17:34;23.80;69.40
12977;DHT22;6553;48.412;9.514;2022-08-19T14:20:04;23.70;69.40
12977;DHT22;6553;48.412;9.514;2022-08-19T14:22:36;23.70;69.40
12977;DHT22;6553;48.412;9.514;2022-08-19T14:25:05;23.70;69.40
12977;DHT22;6553;48.412;9.514;2022-08-19T14:27:37;23.70;69.40
12977;DHT22;6553;48.412;9.514;2022-08-19T14:30:09;23.70;69.50
12977;DHT22;6553;48.412;9.514;2022-08-19T14:32:37;23.70;69.40
12977;DHT22;6553;48.412;9.514;2022-08-19T14:35:04;23.70;69.50
12977;DHT22;6553;48.412;9.514;2022-08-19T14:37:33;23.70;69.40
12977;DHT22;6553;48.412;9.514;2022-08-19T14:40:00;23.80;69.60
12977;DHT22;6553;48.412;9.514;2022-08-19T14:42:27;23.80;69.50
12977;DHT22;6553;48.412;9.514;2022-08-19T14:44:57;23.70;69.50
12977;DHT22;6553;48.412;9.514;2022-08-19T14:47:25;23.70;69.60
12977;DHT22;6553;48.412;9.514;2022-08-19T14:49:52;23.80;69.60
12977;DHT22;6553;48.412;9.514;2022-08-19T14:52:19;23.70;69.50
12977;DHT22;6553;48.412;9.514;2022-08-19T14:54:45;23.70;69.70
12977;DHT22;6553;48.412;9.514;2022-08-19T14:57:13;23.70;69.50
12977;DHT22;6553;48.412;9.514;2022-08-19T14:59:41;23.80;69.80
12977;DHT22;6553;48.412;9.514;2022-08-19T15:02:08;23.80;69.70
12977;DHT22;6553;48.412;9.514;2022-08-19T15:04:34;23.70;70.50
12977;DHT22;6553;48.412;9.514;2022-08-19T15:07:00;23.80;69.80
12977;DHT22;6553;48.412;9.514;2022-08-19T15:09:27;23.80;70.60
12977;DHT22;6553;48.412;9.514;2022-08-19T15:11:53;23.70;69.70
12977;DHT22;6553;48.412;9.514;2022-08-19T15:14:19;23.70;69.80
12977;DHT22;6553;48.412;9.514;2022-08-19T15:16:46;23.80;69.80
12977;DHT22;6553;48.412;9.514;2022-08-19T15:19:12;23.70;69.70
12977;DHT22;6553;48.412;9.514;2022-08-19T15:21:38;23.70;69.70
12977;DHT22;6553;48.412;9.514;2022-08-19T15:24:04;23.80;69.90
12977;DHT22;6553;48.412;9.514;2022-08-19T15:26:30;23.70;69.70
12977;DHT22;6553;48.412;9.514;2022-08-19T15:28:58;23.70;69.70
12977;DHT22;6553;48.412;9.514;2022-08-19T15:31:26;23.70;69.80
12977;DHT22;6553;48.412;9.514;2022-08-19T15:33:54;23.70;69.80
12977;DHT22;6553;48.412;9.514;2022-08-19T15:36:23;23.70;69.90
12977;DHT22;6553;48.412;9.514;2022-08-19T15:38:50;23.80;69.80
12977;DHT22;6553;48.412;9.514;2022-08-19T15:41:30;23.70;69.90
12977;DHT22;6553;48.412;9.514;2022-08-19T15:43:58;23.70;69.80
12977;DHT22;6553;48.412;9.514;2022-08-19T15:46:27;23.70;69.90
12977;DHT22;6553;48.412;9.514;2022-08-19T15:48:56;23.70;69.90
12977;DHT22;6553;48.412;9.514;2022-08-19T15:51:24;23.80;70.00
12977;DHT22;6553;48.412;9.514;2022-08-19T15:53:51;23.70;69.80
12977;DHT22;6553;48.412;9.514;2022-08-19T15:56:17;23.70;70.00
12977;DHT22;6553;48.412;9.514;2022-08-19T15:58:43;23.70;69.50
12977;DHT22;6553;48.412;9.514;2022-08-19T16:01:28;23.70;70.00
12977;DHT22;6553;48.412;9.514;2022-08-19T16:03:58;23.70;69.90
12977;DHT22;6553;48.412;9.514;2022-08-19T16:06:46;23.70;69.90
12977;DHT22;6553;48.412;9.514;2022-08-19T16:09:17;23.70;70.00
12977;DHT22;6553;48.412;9.514;2022-08-19T16:11:45;23.70;69.90